Terminal Aerodrome Forecast
Issued by NWS Duluth, MN

Home | Current Version | Previous Version | Text Only | Print | Product List | Glossary On
Versions: 1 2 3 4 5 6 7 8 9 10 11 12 13 14 15 16 17 18 19 20 21
000
FTUS43 KDLH 292329
TAFDLH
TAF
KDLH 292329Z 3000/3024 09010KT P6SM SKC
     FM300600 06008KT P6SM SKC
     FM301400 07012G22KT P6SM FEW030
     FM301800 08015G28KT P6SM FEW040=

USA.gov is the U.S. government's official web portal to all federal, state and local government web resources and services.